Chisholm, Minnesota
Current Conditions -  °F | °C
As of 10:42 AM on Saturday 22 Nov 2014 (Local Time) from KHIB Reporting Station
Haze Haze  
Wind Chill: 30°   Ceiling: 300
Heat Index: 30°   Visibility: 2mi
Dew Point: 26°   Wind: 0mph
Humidity: 85%   Direction: NA
Pressure: 29.65"   Gusts: NA
Location:  47.49°N, 92.88°W
Report Text: KHIB 221642Z AUTO 00000KT 2SM BR OVC003 M01/M03 A2965 RMK AO2 T10111033
Loading
Personal Weather Stations






























Interactive Weather Map New forecast layout! Learn more

10-Day Weather Forecast

Advertisements
Track Severe Weather on mobile